sensor_id;sensor_type;location;lat;lon;timestamp;P1;durP1;ratioP1;P2;durP2;ratioP2
25988;SDS011;13778;48.236;9.894;2022-08-18T00:01:33;13.00;;;11.00;;
25988;SDS011;13778;48.236;9.894;2022-08-18T00:04:23;16.50;;;10.88;;
25988;SDS011;13778;48.236;9.894;2022-08-18T00:07:16;15.38;;;11.65;;
25988;SDS011;13778;48.236;9.894;2022-08-18T00:10:08;14.55;;;10.77;;
25988;SDS011;13778;48.236;9.894;2022-08-18T00:15:49;12.10;;;10.55;;
25988;SDS011;13778;48.236;9.894;2022-08-18T00:18:39;13.27;;;11.98;;
25988;SDS011;13778;48.236;9.894;2022-08-18T00:21:30;13.23;;;11.85;;
25988;SDS011;13778;48.236;9.894;2022-08-18T00:24:20;14.20;;;12.80;;
25988;SDS011;13778;48.236;9.894;2022-08-18T00:27:12;14.38;;;12.88;;
25988;SDS011;13778;48.236;9.894;2022-08-18T00:32:54;16.63;;;13.82;;
25988;SDS011;13778;48.236;9.894;2022-08-18T00:35:44;18.67;;;13.20;;
25988;SDS011;13778;48.236;9.894;2022-08-18T00:38:35;18.33;;;12.90;;
25988;SDS011;13778;48.236;9.894;2022-08-18T00:41:25;14.77;;;12.18;;
25988;SDS011;13778;48.236;9.894;2022-08-18T00:44:18;14.85;;;11.85;;
25988;SDS011;13778;48.236;9.894;2022-08-18T00:49:58;13.75;;;12.35;;
25988;SDS011;13778;48.236;9.894;2022-08-18T00:52:50;16.88;;;12.98;;
25988;SDS011;13778;48.236;9.894;2022-08-18T00:55:42;18.45;;;14.85;;
25988;SDS011;13778;48.236;9.894;2022-08-18T00:58:37;17.33;;;13.57;;
25988;SDS011;13778;48.236;9.894;2022-08-18T01:01:31;16.45;;;13.90;;
25988;SDS011;13778;48.236;9.894;2022-08-18T01:07:06;19.40;;;17.50;;
25988;SDS011;13778;48.236;9.894;2022-08-18T01:09:57;18.58;;;16.63;;
25988;SDS011;13778;48.236;9.894;2022-08-18T01:12:49;18.17;;;16.23;;
25988;SDS011;13778;48.236;9.894;2022-08-18T01:15:40;17.27;;;15.43;;
25988;SDS011;13778;48.236;9.894;2022-08-18T01:18:32;18.42;;;15.55;;
25988;SDS011;13778;48.236;9.894;2022-08-18T01:21:40;15.63;;;14.07;;
25988;SDS011;13778;48.236;9.894;2022-08-18T01:24:43;19.65;;;15.32;;
25988;SDS011;13778;48.236;9.894;2022-08-18T01:28:03;16.13;;;14.45;;
25988;SDS011;13778;48.236;9.894;2022-08-18T01:30:54;18.33;;;16.37;;
25988;SDS011;13778;48.236;9.894;2022-08-18T01:33:46;16.77;;;14.70;;
25988;SDS011;13778;48.236;9.894;2022-08-18T01:36:37;17.23;;;15.52;;
25988;SDS011;13778;48.236;9.894;2022-08-18T01:42:20;17.90;;;15.40;;
25988;SDS011;13778;48.236;9.894;2022-08-18T01:45:10;17.48;;;15.15;;
25988;SDS011;13778;48.236;9.894;2022-08-18T01:48:01;14.60;;;13.10;;
25988;SDS011;13778;48.236;9.894;2022-08-18T01:50:52;12.55;;;11.15;;
25988;SDS011;13778;48.236;9.894;2022-08-18T01:53:45;11.45;;;10.27;;
25988;SDS011;13778;48.236;9.894;2022-08-18T01:56:36;9.90;;;8.40;;
25988;SDS011;13778;48.236;9.894;2022-08-18T01:59:28;9.35;;;8.43;;
25988;SDS011;13778;48.236;9.894;2022-08-18T02:02:19;12.60;;;9.10;;
25988;SDS011;13778;48.236;9.894;2022-08-18T02:05:13;9.13;;;8.15;;
25988;SDS011;13778;48.236;9.894;2022-08-18T02:08:06;11.68;;;8.57;;
25988;SDS011;13778;48.236;9.894;2022-08-18T02:10:56;18.80;;;8.90;;
25988;SDS011;13778;48.236;9.894;2022-08-18T02:13:47;11.10;;;8.50;;
25988;SDS011;13778;48.236;9.894;2022-08-18T02:16:39;12.20;;;8.48;;
25988;SDS011;13778;48.236;9.894;2022-08-18T02:22:20;9.52;;;8.60;;
25988;SDS011;13778;48.236;9.894;2022-08-18T02:25:10;10.20;;;9.20;;
25988;SDS011;13778;48.236;9.894;2022-08-18T02:28:02;10.40;;;9.30;;
25988;SDS011;13778;48.236;9.894;2022-08-18T02:30:53;10.18;;;9.05;;
25988;SDS011;13778;48.236;9.894;2022-08-18T02:33:45;11.20;;;9.07;;
25988;SDS011;13778;48.236;9.894;2022-08-18T02:36:35;11.48;;;10.05;;
25988;SDS011;13778;48.236;9.894;2022-08-18T02:39:26;11.18;;;9.98;;
25988;SDS011;13778;48.236;9.894;2022-08-18T02:42:16;13.45;;;10.13;;
25988;SDS011;13778;48.236;9.894;2022-08-18T02:45:07;13.68;;;11.38;;
25988;SDS011;13778;48.236;9.894;2022-08-18T02:47:58;13.43;;;12.03;;
25988;SDS011;13778;48.236;9.894;2022-08-18T02:50:50;15.97;;;11.60;;
25988;SDS011;13778;48.236;9.894;2022-08-18T02:53:48;14.88;;;12.82;;
25988;SDS011;13778;48.236;9.894;2022-08-18T02:56:39;14.40;;;12.77;;
25988;SDS011;13778;48.236;9.894;2022-08-18T02:59:30;13.10;;;11.80;;
25988;SDS011;13778;48.236;9.894;2022-08-18T03:02:21;13.73;;;12.32;;
25988;SDS011;13778;48.236;9.894;2022-08-18T03:05:12;15.63;;;11.43;;
25988;SDS011;13778;48.236;9.894;2022-08-18T03:08:04;15.77;;;11.25;;
25988;SDS011;13778;48.236;9.894;2022-08-18T03:13:44;14.57;;;12.02;;
25988;SDS011;13778;48.236;9.894;2022-08-18T03:16:36;12.90;;;11.48;;
25988;SDS011;13778;48.236;9.894;2022-08-18T03:19:27;13.98;;;11.43;;
25988;SDS011;13778;48.236;9.894;2022-08-18T03:22:18;13.13;;;11.83;;
25988;SDS011;13778;48.236;9.894;2022-08-18T03:25:09;13.20;;;11.85;;
25988;SDS011;13778;48.236;9.894;2022-08-18T03:30:50;12.60;;;10.20;;
25988;SDS011;13778;48.236;9.894;2022-08-18T03:33:40;11.98;;;10.77;;
25988;SDS011;13778;48.236;9.894;2022-08-18T03:36:31;17.65;;;11.38;;
25988;SDS011;13778;48.236;9.894;2022-08-18T03:39:22;11.53;;;10.00;;
25988;SDS011;13778;48.236;9.894;2022-08-18T03:42:14;13.30;;;11.43;;
25988;SDS011;13778;48.236;9.894;2022-08-18T03:45:06;10.50;;;9.35;;
25988;SDS011;13778;48.236;9.894;2022-08-18T03:47:57;12.50;;;11.23;;
25988;SDS011;13778;48.236;9.894;2022-08-18T03:50:48;13.18;;;11.65;;
25988;SDS011;13778;48.236;9.894;2022-08-18T03:53:39;14.05;;;10.77;;
25988;SDS011;13778;48.236;9.894;2022-08-18T03:56:30;11.90;;;10.70;;
25988;SDS011;13778;48.236;9.894;2022-08-18T03:59:24;16.70;;;12.55;;
25988;SDS011;13778;48.236;9.894;2022-08-18T04:02:15;14.70;;;11.88;;
25988;SDS011;13778;48.236;9.894;2022-08-18T04:05:06;13.47;;;11.63;;
25988;SDS011;13778;48.236;9.894;2022-08-18T04:07:58;14.73;;;11.25;;
25988;SDS011;13778;48.236;9.894;2022-08-18T04:10:48;15.18;;;12.15;;
25988;SDS011;13778;48.236;9.894;2022-08-18T04:13:39;14.35;;;11.68;;
25988;SDS011;13778;48.236;9.894;2022-08-18T04:16:31;13.98;;;12.40;;
25988;SDS011;13778;48.236;9.894;2022-08-18T04:19:22;14.57;;;12.65;;
25988;SDS011;13778;48.236;9.894;2022-08-18T04:22:13;13.23;;;11.25;;
25988;SDS011;13778;48.236;9.894;2022-08-18T04:25:04;14.57;;;13.07;;
25988;SDS011;13778;48.236;9.894;2022-08-18T04:27:57;13.30;;;12.02;;
25988;SDS011;13778;48.236;9.894;2022-08-18T04:33:40;13.75;;;11.07;;
25988;SDS011;13778;48.236;9.894;2022-08-18T04:36:31;14.23;;;12.48;;
25988;SDS011;13778;48.236;9.894;2022-08-18T04:39:22;14.15;;;11.35;;
25988;SDS011;13778;48.236;9.894;2022-08-18T04:42:14;14.77;;;11.53;;
25988;SDS011;13778;48.236;9.894;2022-08-18T04:45:04;16.35;;;11.68;;
25988;SDS011;13778;48.236;9.894;2022-08-18T04:47:56;12.00;;;10.80;;
25988;SDS011;13778;48.236;9.894;2022-08-18T04:50:48;15.70;;;11.60;;
25988;SDS011;13778;48.236;9.894;2022-08-18T04:56:36;13.50;;;12.13;;
25988;SDS011;13778;48.236;9.894;2022-08-18T04:59:26;15.02;;;11.65;;
25988;SDS011;13778;48.236;9.894;2022-08-18T05:02:17;12.27;;;10.23;;
25988;SDS011;13778;48.236;9.894;2022-08-18T05:05:08;14.05;;;11.40;;
25988;SDS011;13778;48.236;9.894;2022-08-18T05:08:00;12.18;;;10.88;;
25988;SDS011;13778;48.236;9.894;2022-08-18T05:10:52;12.40;;;10.98;;
25988;SDS011;13778;48.236;9.894;2022-08-18T05:13:42;16.48;;;10.27;;
25988;SDS011;13778;48.236;9.894;2022-08-18T05:16:33;11.60;;;10.32;;
25988;SDS011;13778;48.236;9.894;2022-08-18T05:19:25;12.60;;;9.90;;
25988;SDS011;13778;48.236;9.894;2022-08-18T05:22:16;14.90;;;10.70;;
25988;SDS011;13778;48.236;9.894;2022-08-18T05:25:10;14.65;;;11.73;;
25988;SDS011;13778;48.236;9.894;2022-08-18T05:28:01;14.07;;;11.98;;
25988;SDS011;13778;48.236;9.894;2022-08-18T05:30:52;13.35;;;11.95;;
25988;SDS011;13778;48.236;9.894;2022-08-18T05:33:42;13.98;;;12.57;;
25988;SDS011;13778;48.236;9.894;2022-08-18T05:36:43;16.08;;;13.55;;
25988;SDS011;13778;48.236;9.894;2022-08-18T05:39:36;15.18;;;13.68;;
25988;SDS011;13778;48.236;9.894;2022-08-18T05:42:32;16.30;;;13.70;;
25988;SDS011;13778;48.236;9.894;2022-08-18T05:45:24;18.48;;;14.57;;
25988;SDS011;13778;48.236;9.894;2022-08-18T05:48:15;19.77;;;14.75;;
25988;SDS011;13778;48.236;9.894;2022-08-18T05:51:09;17.80;;;15.55;;
25988;SDS011;13778;48.236;9.894;2022-08-18T05:54:00;16.88;;;13.93;;
25988;SDS011;13778;48.236;9.894;2022-08-18T05:57:13;17.45;;;14.93;;
25988;SDS011;13778;48.236;9.894;2022-08-18T06:00:07;15.57;;;13.90;;
25988;SDS011;13778;48.236;9.894;2022-08-18T06:02:59;16.33;;;14.02;;
25988;SDS011;13778;48.236;9.894;2022-08-18T06:05:52;17.45;;;14.02;;
25988;SDS011;13778;48.236;9.894;2022-08-18T06:08:47;17.27;;;15.48;;
25988;SDS011;13778;48.236;9.894;2022-08-18T06:11:40;18.65;;;16.35;;
25988;SDS011;13778;48.236;9.894;2022-08-18T06:14:31;17.90;;;15.10;;
25988;SDS011;13778;48.236;9.894;2022-08-18T06:17:30;17.10;;;14.48;;
25988;SDS011;13778;48.236;9.894;2022-08-18T06:20:26;18.80;;;16.08;;
25988;SDS011;13778;48.236;9.894;2022-08-18T06:23:19;19.25;;;16.55;;
25988;SDS011;13778;48.236;9.894;2022-08-18T06:26:13;18.10;;;15.75;;
25988;SDS011;13778;48.236;9.894;2022-08-18T06:29:09;17.77;;;15.30;;
25988;SDS011;13778;48.236;9.894;2022-08-18T06:32:04;21.15;;;16.23;;
25988;SDS011;13778;48.236;9.894;2022-08-18T06:35:05;16.52;;;14.77;;
25988;SDS011;13778;48.236;9.894;2022-08-18T06:38:01;17.08;;;15.30;;
25988;SDS011;13778;48.236;9.894;2022-08-18T06:41:13;16.98;;;15.25;;
25988;SDS011;13778;48.236;9.894;2022-08-18T06:44:05;22.95;;;16.58;;
25988;SDS011;13778;48.236;9.894;2022-08-18T06:46:57;23.90;;;16.80;;
25988;SDS011;13778;48.236;9.894;2022-08-18T06:49:54;18.58;;;15.77;;
25988;SDS011;13778;48.236;9.894;2022-08-18T06:52:52;18.27;;;15.55;;
25988;SDS011;13778;48.236;9.894;2022-08-18T06:55:44;19.13;;;15.65;;
25988;SDS011;13778;48.236;9.894;2022-08-18T06:58:35;23.83;;;18.05;;
25988;SDS011;13778;48.236;9.894;2022-08-18T07:01:25;20.15;;;17.58;;
25988;SDS011;13778;48.236;9.894;2022-08-18T07:07:35;24.60;;;17.48;;
25988;SDS011;13778;48.236;9.894;2022-08-18T07:10:29;23.73;;;17.52;;
25988;SDS011;13778;48.236;9.894;2022-08-18T07:13:21;18.40;;;16.50;;
25988;SDS011;13778;48.236;9.894;2022-08-18T07:16:14;21.13;;;17.35;;
25988;SDS011;13778;48.236;9.894;2022-08-18T07:19:06;19.80;;;17.02;;
25988;SDS011;13778;48.236;9.894;2022-08-18T07:22:00;22.70;;;17.08;;
25988;SDS011;13778;48.236;9.894;2022-08-18T07:24:51;19.88;;;17.58;;
25988;SDS011;13778;48.236;9.894;2022-08-18T07:27:45;19.05;;;17.00;;
25988;SDS011;13778;48.236;9.894;2022-08-18T07:30:37;20.40;;;18.30;;
25988;SDS011;13778;48.236;9.894;2022-08-18T07:33:27;20.67;;;18.35;;
25988;SDS011;13778;48.236;9.894;2022-08-18T07:36:19;20.13;;;18.17;;
25988;SDS011;13778;48.236;9.894;2022-08-18T07:39:13;21.10;;;18.70;;
25988;SDS011;13778;48.236;9.894;2022-08-18T07:42:05;21.73;;;19.45;;
25988;SDS011;13778;48.236;9.894;2022-08-18T07:45:00;20.58;;;18.38;;
25988;SDS011;13778;48.236;9.894;2022-08-18T07:47:53;23.25;;;18.45;;
25988;SDS011;13778;48.236;9.894;2022-08-18T07:50:44;22.38;;;19.15;;
25988;SDS011;13778;48.236;9.894;2022-08-18T07:53:39;21.30;;;19.05;;
25988;SDS011;13778;48.236;9.894;2022-08-18T07:56:33;22.35;;;18.85;;
25988;SDS011;13778;48.236;9.894;2022-08-18T07:59:28;23.42;;;18.65;;
25988;SDS011;13778;48.236;9.894;2022-08-18T08:02:26;20.33;;;18.13;;
25988;SDS011;13778;48.236;9.894;2022-08-18T08:05:19;23.92;;;20.30;;
25988;SDS011;13778;48.236;9.894;2022-08-18T08:08:14;23.10;;;20.75;;
25988;SDS011;13778;48.236;9.894;2022-08-18T08:11:07;24.33;;;21.63;;
25988;SDS011;13778;48.236;9.894;2022-08-18T08:14:05;25.20;;;22.67;;
25988;SDS011;13778;48.236;9.894;2022-08-18T08:17:01;31.10;;;27.80;;
25988;SDS011;13778;48.236;9.894;2022-08-18T08:20:11;30.30;;;26.88;;
25988;SDS011;13778;48.236;9.894;2022-08-18T08:23:04;29.20;;;24.95;;
25988;SDS011;13778;48.236;9.894;2022-08-18T08:26:01;26.75;;;24.02;;
25988;SDS011;13778;48.236;9.894;2022-08-18T08:29:00;25.52;;;22.90;;
25988;SDS011;13778;48.236;9.894;2022-08-18T08:31:53;24.88;;;22.00;;
25988;SDS011;13778;48.236;9.894;2022-08-18T08:34:48;27.35;;;24.35;;
25988;SDS011;13778;48.236;9.894;2022-08-18T08:37:41;25.58;;;22.85;;
25988;SDS011;13778;48.236;9.894;2022-08-18T08:40:35;29.63;;;24.15;;
25988;SDS011;13778;48.236;9.894;2022-08-18T08:43:28;26.42;;;23.63;;
25988;SDS011;13778;48.236;9.894;2022-08-18T08:46:20;25.60;;;22.02;;
25988;SDS011;13778;48.236;9.894;2022-08-18T08:49:15;27.65;;;24.67;;
25988;SDS011;13778;48.236;9.894;2022-08-18T08:52:10;27.33;;;24.33;;
25988;SDS011;13778;48.236;9.894;2022-08-18T08:55:06;26.35;;;23.15;;
25988;SDS011;13778;48.236;9.894;2022-08-18T08:58:01;26.63;;;23.30;;
25988;SDS011;13778;48.236;9.894;2022-08-18T09:00:52;28.52;;;25.05;;
25988;SDS011;13778;48.236;9.894;2022-08-18T09:03:44;31.73;;;26.35;;
25988;SDS011;13778;48.236;9.894;2022-08-18T09:06:38;27.40;;;24.23;;
25988;SDS011;13778;48.236;9.894;2022-08-18T09:09:41;25.05;;;22.52;;
25988;SDS011;13778;48.236;9.894;2022-08-18T09:12:38;24.75;;;22.15;;
25988;SDS011;13778;48.236;9.894;2022-08-18T09:15:38;23.45;;;21.00;;
25988;SDS011;13778;48.236;9.894;2022-08-18T09:18:33;23.55;;;21.08;;
25988;SDS011;13778;48.236;9.894;2022-08-18T09:21:34;22.80;;;20.38;;
25988;SDS011;13778;48.236;9.894;2022-08-18T09:24:27;21.50;;;19.30;;
25988;SDS011;13778;48.236;9.894;2022-08-18T09:27:24;24.33;;;21.30;;
25988;SDS011;13778;48.236;9.894;2022-08-18T09:33:29;22.73;;;18.48;;
25988;SDS011;13778;48.236;9.894;2022-08-18T09:36:27;20.00;;;17.92;;
25988;SDS011;13778;48.236;9.894;2022-08-18T09:39:21;19.42;;;16.77;;
25988;SDS011;13778;48.236;9.894;2022-08-18T09:42:33;21.02;;;18.67;;
25988;SDS011;13778;48.236;9.894;2022-08-18T09:45:39;18.17;;;16.27;;
25988;SDS011;13778;48.236;9.894;2022-08-18T09:48:32;16.90;;;15.13;;
25988;SDS011;13778;48.236;9.894;2022-08-18T09:51:33;15.90;;;14.30;;
25988;SDS011;13778;48.236;9.894;2022-08-18T09:54:25;14.93;;;12.77;;
25988;SDS011;13778;48.236;9.894;2022-08-18T09:57:20;13.88;;;12.48;;
25988;SDS011;13778;48.236;9.894;2022-08-18T10:00:17;14.43;;;12.82;;
25988;SDS011;13778;48.236;9.894;2022-08-18T10:03:17;14.88;;;12.35;;
25988;SDS011;13778;48.236;9.894;2022-08-18T10:06:16;14.20;;;12.75;;
25988;SDS011;13778;48.236;9.894;2022-08-18T10:09:25;14.50;;;11.57;;
25988;SDS011;13778;48.236;9.894;2022-08-18T10:12:30;10.32;;;9.25;;
25988;SDS011;13778;48.236;9.894;2022-08-18T10:15:30;11.85;;;9.50;;
25988;SDS011;13778;48.236;9.894;2022-08-18T10:18:38;9.65;;;7.80;;
25988;SDS011;13778;48.236;9.894;2022-08-18T10:24:39;14.63;;;9.80;;
25988;SDS011;13778;48.236;9.894;2022-08-18T10:27:32;11.57;;;9.20;;
25988;SDS011;13778;48.236;9.894;2022-08-18T10:36:58;12.80;;;10.98;;
25988;SDS011;13778;48.236;9.894;2022-08-18T10:39:51;11.10;;;9.73;;
25988;SDS011;13778;48.236;9.894;2022-08-18T10:42:43;8.45;;;7.47;;
25988;SDS011;13778;48.236;9.894;2022-08-18T10:45:35;7.28;;;6.55;;
25988;SDS011;13778;48.236;9.894;2022-08-18T10:51:19;9.38;;;7.80;;
25988;SDS011;13778;48.236;9.894;2022-08-18T10:54:17;9.32;;;7.05;;
25988;SDS011;13778;48.236;9.894;2022-08-18T10:57:12;8.43;;;6.82;;
25988;SDS011;13778;48.236;9.894;2022-08-18T11:00:06;9.00;;;7.20;;
25988;SDS011;13778;48.236;9.894;2022-08-18T11:03:03;9.32;;;6.75;;
25988;SDS011;13778;48.236;9.894;2022-08-18T11:06:02;7.65;;;6.95;;
25988;SDS011;13778;48.236;9.894;2022-08-18T11:08:54;8.05;;;7.35;;
25988;SDS011;13778;48.236;9.894;2022-08-18T11:11:45;8.25;;;6.97;;
25988;SDS011;13778;48.236;9.894;2022-08-18T11:14:54;7.30;;;6.50;;
25988;SDS011;13778;48.236;9.894;2022-08-18T11:17:51;9.45;;;7.03;;
25988;SDS011;13778;48.236;9.894;2022-08-18T11:20:43;9.50;;;7.18;;
25988;SDS011;13778;48.236;9.894;2022-08-18T11:23:34;13.20;;;6.72;;
25988;SDS011;13778;48.236;9.894;2022-08-18T11:26:24;7.65;;;6.88;;
25988;SDS011;13778;48.236;9.894;2022-08-18T11:29:19;13.23;;;7.40;;
25988;SDS011;13778;48.236;9.894;2022-08-18T11:35:04;10.27;;;7.10;;
25988;SDS011;13778;48.236;9.894;2022-08-18T11:37:56;10.15;;;8.18;;
25988;SDS011;13778;48.236;9.894;2022-08-18T11:40:47;12.05;;;8.50;;
25988;SDS011;13778;48.236;9.894;2022-08-18T11:43:40;9.27;;;8.35;;
25988;SDS011;13778;48.236;9.894;2022-08-18T11:46:35;10.93;;;8.60;;
25988;SDS011;13778;48.236;9.894;2022-08-18T11:49:28;9.27;;;8.23;;
25988;SDS011;13778;48.236;9.894;2022-08-18T11:52:23;9.07;;;7.95;;
25988;SDS011;13778;48.236;9.894;2022-08-18T11:55:17;9.65;;;8.70;;
25988;SDS011;13778;48.236;9.894;2022-08-18T11:58:09;14.80;;;9.50;;
25988;SDS011;13778;48.236;9.894;2022-08-18T12:01:00;9.57;;;8.68;;
25988;SDS011;13778;48.236;9.894;2022-08-18T12:03:50;10.05;;;8.95;;
25988;SDS011;13778;48.236;9.894;2022-08-18T12:06:51;9.10;;;8.05;;
25988;SDS011;13778;48.236;9.894;2022-08-18T12:09:45;9.52;;;7.93;;
25988;SDS011;13778;48.236;9.894;2022-08-18T12:12:42;8.45;;;7.60;;
25988;SDS011;13778;48.236;9.894;2022-08-18T12:15:34;7.95;;;7.18;;
25988;SDS011;13778;48.236;9.894;2022-08-18T12:18:24;10.73;;;8.55;;
25988;SDS011;13778;48.236;9.894;2022-08-18T12:21:15;8.20;;;7.40;;
25988;SDS011;13778;48.236;9.894;2022-08-18T12:24:06;8.68;;;7.78;;
25988;SDS011;13778;48.236;9.894;2022-08-18T12:26:59;9.60;;;7.78;;
25988;SDS011;13778;48.236;9.894;2022-08-18T12:29:50;8.80;;;7.10;;
25988;SDS011;13778;48.236;9.894;2022-08-18T12:32:41;9.40;;;7.32;;
25988;SDS011;13778;48.236;9.894;2022-08-18T12:35:32;9.20;;;6.88;;
25988;SDS011;13778;48.236;9.894;2022-08-18T12:38:22;10.38;;;7.65;;
25988;SDS011;13778;48.236;9.894;2022-08-18T12:41:13;8.35;;;7.40;;
25988;SDS011;13778;48.236;9.894;2022-08-18T12:44:05;8.10;;;6.90;;
25988;SDS011;13778;48.236;9.894;2022-08-18T12:46:55;7.72;;;7.03;;
25988;SDS011;13778;48.236;9.894;2022-08-18T12:49:46;7.95;;;7.25;;
25988;SDS011;13778;48.236;9.894;2022-08-18T12:52:36;9.63;;;6.68;;
25988;SDS011;13778;48.236;9.894;2022-08-18T12:55:27;8.43;;;7.55;;
25988;SDS011;13778;48.236;9.894;2022-08-18T12:58:17;7.88;;;6.20;;
25988;SDS011;13778;48.236;9.894;2022-08-18T13:01:09;7.70;;;6.90;;
25988;SDS011;13778;48.236;9.894;2022-08-18T13:06:52;7.45;;;6.75;;
25988;SDS011;13778;48.236;9.894;2022-08-18T13:09:43;7.93;;;7.07;;
25988;SDS011;13778;48.236;9.894;2022-08-18T13:12:34;10.55;;;7.75;;
25988;SDS011;13778;48.236;9.894;2022-08-18T13:15:24;10.55;;;7.57;;
25988;SDS011;13778;48.236;9.894;2022-08-18T13:18:17;7.50;;;6.90;;
25988;SDS011;13778;48.236;9.894;2022-08-18T13:21:08;8.82;;;7.68;;
25988;SDS011;13778;48.236;9.894;2022-08-18T13:23:59;8.32;;;7.57;;
25988;SDS011;13778;48.236;9.894;2022-08-18T13:26:49;8.07;;;7.28;;
25988;SDS011;13778;48.236;9.894;2022-08-18T13:29:40;9.40;;;8.40;;
25988;SDS011;13778;48.236;9.894;2022-08-18T13:32:31;8.07;;;7.32;;
25988;SDS011;13778;48.236;9.894;2022-08-18T13:35:23;9.85;;;7.82;;
25988;SDS011;13778;48.236;9.894;2022-08-18T13:38:16;7.72;;;6.93;;
25988;SDS011;13778;48.236;9.894;2022-08-18T13:41:10;12.57;;;7.32;;
25988;SDS011;13778;48.236;9.894;2022-08-18T13:44:01;11.52;;;7.57;;
25988;SDS011;13778;48.236;9.894;2022-08-18T13:46:52;11.30;;;8.43;;
25988;SDS011;13778;48.236;9.894;2022-08-18T13:49:44;12.55;;;8.23;;
25988;SDS011;13778;48.236;9.894;2022-08-18T13:52:36;11.10;;;8.85;;
25988;SDS011;13778;48.236;9.894;2022-08-18T13:55:26;14.30;;;9.85;;
25988;SDS011;13778;48.236;9.894;2022-08-18T13:58:17;9.63;;;8.02;;
25988;SDS011;13778;48.236;9.894;2022-08-18T14:01:08;9.20;;;8.40;;
25988;SDS011;13778;48.236;9.894;2022-08-18T14:04:00;9.73;;;8.20;;
25988;SDS011;13778;48.236;9.894;2022-08-18T14:06:50;9.18;;;8.35;;
25988;SDS011;13778;48.236;9.894;2022-08-18T14:09:42;10.00;;;9.00;;
25988;SDS011;13778;48.236;9.894;2022-08-18T14:15:23;9.65;;;8.85;;
25988;SDS011;13778;48.236;9.894;2022-08-18T14:18:13;11.30;;;9.32;;
25988;SDS011;13778;48.236;9.894;2022-08-18T14:21:04;9.73;;;8.63;;
25988;SDS011;13778;48.236;9.894;2022-08-18T14:24:12;10.85;;;9.45;;
25988;SDS011;13778;48.236;9.894;2022-08-18T14:27:25;10.20;;;9.30;;
25988;SDS011;13778;48.236;9.894;2022-08-18T14:30:16;10.45;;;9.45;;
25988;SDS011;13778;48.236;9.894;2022-08-18T14:33:06;10.38;;;9.35;;
25988;SDS011;13778;48.236;9.894;2022-08-18T14:35:57;10.33;;;8.83;;
25988;SDS011;13778;48.236;9.894;2022-08-18T14:38:48;13.10;;;9.35;;
25988;SDS011;13778;48.236;9.894;2022-08-18T14:41:38;9.68;;;8.88;;
25988;SDS011;13778;48.236;9.894;2022-08-18T14:44:30;11.38;;;9.63;;
25988;SDS011;13778;48.236;9.894;2022-08-18T14:50:10;17.38;;;9.00;;
25988;SDS011;13778;48.236;9.894;2022-08-18T14:53:01;11.20;;;10.18;;
25988;SDS011;13778;48.236;9.894;2022-08-18T14:55:52;10.73;;;9.82;;
25988;SDS011;13778;48.236;9.894;2022-08-18T14:58:43;11.45;;;10.30;;
25988;SDS011;13778;48.236;9.894;2022-08-18T15:01:35;10.48;;;9.38;;
25988;SDS011;13778;48.236;9.894;2022-08-18T15:04:25;12.52;;;10.13;;
25988;SDS011;13778;48.236;9.894;2022-08-18T15:07:16;11.35;;;10.30;;
25988;SDS011;13778;48.236;9.894;2022-08-18T15:10:08;11.90;;;10.70;;
25988;SDS011;13778;48.236;9.894;2022-08-18T15:12:59;11.73;;;10.57;;
25988;SDS011;13778;48.236;9.894;2022-08-18T15:15:50;11.77;;;10.38;;
25988;SDS011;13778;48.236;9.894;2022-08-18T15:18:42;11.20;;;10.10;;
25988;SDS011;13778;48.236;9.894;2022-08-18T15:21:33;11.05;;;10.00;;
25988;SDS011;13778;48.236;9.894;2022-08-18T15:24:41;10.93;;;9.98;;
25988;SDS011;13778;48.236;9.894;2022-08-18T15:27:49;11.77;;;10.43;;
25988;SDS011;13778;48.236;9.894;2022-08-18T15:30:41;11.23;;;10.13;;
25988;SDS011;13778;48.236;9.894;2022-08-18T15:33:31;13.75;;;9.85;;
25988;SDS011;13778;48.236;9.894;2022-08-18T15:36:25;11.48;;;10.20;;
25988;SDS011;13778;48.236;9.894;2022-08-18T15:42:08;11.30;;;10.02;;
25988;SDS011;13778;48.236;9.894;2022-08-18T15:45:00;14.07;;;10.30;;
25988;SDS011;13778;48.236;9.894;2022-08-18T15:47:53;11.65;;;10.45;;
25988;SDS011;13778;48.236;9.894;2022-08-18T15:50:44;14.37;;;9.77;;
25988;SDS011;13778;48.236;9.894;2022-08-18T15:53:38;10.57;;;9.25;;
25988;SDS011;13778;48.236;9.894;2022-08-18T15:56:28;11.80;;;10.57;;
25988;SDS011;13778;48.236;9.894;2022-08-18T15:59:19;11.13;;;9.85;;
25988;SDS011;13778;48.236;9.894;2022-08-18T16:02:10;12.07;;;9.63;;
25988;SDS011;13778;48.236;9.894;2022-08-18T16:05:01;15.63;;;10.60;;
25988;SDS011;13778;48.236;9.894;2022-08-18T16:07:51;11.73;;;10.35;;
25988;SDS011;13778;48.236;9.894;2022-08-18T16:10:45;11.73;;;10.68;;
25988;SDS011;13778;48.236;9.894;2022-08-18T16:13:35;12.57;;;10.07;;
25988;SDS011;13778;48.236;9.894;2022-08-18T16:16:26;14.50;;;10.35;;
25988;SDS011;13778;48.236;9.894;2022-08-18T16:19:16;10.90;;;9.80;;
25988;SDS011;13778;48.236;9.894;2022-08-18T16:22:07;13.15;;;10.35;;
25988;SDS011;13778;48.236;9.894;2022-08-18T16:24:57;13.02;;;10.70;;
25988;SDS011;13778;48.236;9.894;2022-08-18T16:27:52;11.93;;;9.55;;
25988;SDS011;13778;48.236;9.894;2022-08-18T16:30:43;10.05;;;9.05;;
25988;SDS011;13778;48.236;9.894;2022-08-18T16:33:35;11.10;;;10.00;;
25988;SDS011;13778;48.236;9.894;2022-08-18T16:36:26;11.07;;;9.80;;
25988;SDS011;13778;48.236;9.894;2022-08-18T16:39:16;11.20;;;10.10;;
25988;SDS011;13778;48.236;9.894;2022-08-18T16:42:07;10.73;;;9.73;;
25988;SDS011;13778;48.236;9.894;2022-08-18T16:47:50;10.48;;;9.48;;
25988;SDS011;13778;48.236;9.894;2022-08-18T16:50:41;10.73;;;9.68;;
25988;SDS011;13778;48.236;9.894;2022-08-18T16:53:33;15.82;;;10.38;;
25988;SDS011;13778;48.236;9.894;2022-08-18T16:56:25;11.30;;;10.27;;
25988;SDS011;13778;48.236;9.894;2022-08-18T16:59:15;12.45;;;10.45;;
25988;SDS011;13778;48.236;9.894;2022-08-18T17:02:23;10.95;;;9.85;;
25988;SDS011;13778;48.236;9.894;2022-08-18T17:05:33;11.30;;;10.13;;
25988;SDS011;13778;48.236;9.894;2022-08-18T17:11:15;11.55;;;10.55;;
25988;SDS011;13778;48.236;9.894;2022-08-18T17:14:06;12.25;;;11.13;;
25988;SDS011;13778;48.236;9.894;2022-08-18T17:16:57;12.60;;;11.43;;
25988;SDS011;13778;48.236;9.894;2022-08-18T17:19:48;12.40;;;11.20;;
25988;SDS011;13778;48.236;9.894;2022-08-18T17:22:40;12.93;;;11.68;;
25988;SDS011;13778;48.236;9.894;2022-08-18T17:25:30;12.85;;;11.35;;
25988;SDS011;13778;48.236;9.894;2022-08-18T17:28:22;12.25;;;11.15;;
25988;SDS011;13778;48.236;9.894;2022-08-18T17:31:14;12.55;;;11.20;;
25988;SDS011;13778;48.236;9.894;2022-08-18T17:34:05;12.43;;;11.23;;
25988;SDS011;13778;48.236;9.894;2022-08-18T17:36:56;13.13;;;11.68;;
25988;SDS011;13778;48.236;9.894;2022-08-18T17:39:49;12.77;;;11.50;;
25988;SDS011;13778;48.236;9.894;2022-08-18T17:42:41;14.23;;;12.73;;
25988;SDS011;13778;48.236;9.894;2022-08-18T17:45:31;13.80;;;12.40;;
25988;SDS011;13778;48.236;9.894;2022-08-18T17:48:24;15.38;;;12.73;;
25988;SDS011;13778;48.236;9.894;2022-08-18T17:51:17;14.98;;;13.45;;
25988;SDS011;13778;48.236;9.894;2022-08-18T17:54:30;15.77;;;14.15;;
25988;SDS011;13778;48.236;9.894;2022-08-18T17:57:26;16.10;;;13.23;;
25988;SDS011;13778;48.236;9.894;2022-08-18T18:00:19;18.75;;;15.40;;
25988;SDS011;13778;48.236;9.894;2022-08-18T18:03:09;16.58;;;14.82;;
25988;SDS011;13778;48.236;9.894;2022-08-18T18:06:02;16.13;;;14.55;;
25988;SDS011;13778;48.236;9.894;2022-08-18T18:08:57;15.20;;;13.90;;